createdAt,value
2022-10-07T03:03:19.039Z,4.47
2022-10-07T03:05:49.193Z,4.03
2022-10-07T03:08:15.782Z,4.88
2022-10-07T03:10:42.845Z,4.00
2022-10-07T03:13:09.584Z,3.42
2022-10-07T03:15:42.114Z,3.58
2022-10-07T03:18:26.266Z,4.20
2022-10-07T03:20:55.453Z,3.85
2022-10-07T03:23:25.690Z,4.10
2022-10-07T03:25:53.965Z,4.70
2022-10-07T03:28:22.543Z,3.85
2022-10-07T03:30:50.142Z,4.57
2022-10-07T03:33:18.253Z,4.95
2022-10-07T03:35:45.031Z,3.92
2022-10-07T03:38:12.252Z,3.58
2022-10-07T03:40:39.332Z,4.07
2022-10-07T03:43:07.552Z,3.97
2022-10-07T03:45:37.310Z,3.65
2022-10-07T03:48:05.027Z,3.90
2022-10-07T03:50:31.484Z,4.13
2022-10-07T03:52:57.941Z,3.95
2022-10-07T03:55:24.411Z,3.97
2022-10-07T03:57:53.362Z,4.50
2022-10-07T04:00:25.577Z,4.07
2022-10-07T04:02:52.791Z,4.70
2022-10-07T04:05:20.889Z,4.10
2022-10-07T04:07:49.243Z,4.60
2022-10-07T04:10:17.829Z,4.22
2022-10-07T04:12:45.015Z,4.38
2022-10-07T04:15:14.868Z,3.83
2022-10-07T04:17:41.769Z,4.72
2022-10-07T04:20:09.497Z,4.22
2022-10-07T04:22:36.636Z,4.07
2022-10-07T04:25:22.667Z,4.72
2022-10-07T04:27:56.755Z,4.28
2022-10-07T04:30:26.000Z,4.82
2022-10-07T04:32:52.636Z,5.22
2022-10-07T04:35:23.561Z,5.18
2022-10-07T04:37:51.392Z,4.55
2022-10-07T04:40:19.364Z,4.18
2022-10-07T04:43:05.791Z,4.32
2022-10-07T04:45:34.064Z,4.25
2022-10-07T04:48:01.719Z,4.53
2022-10-07T04:50:28.728Z,4.47
2022-10-07T04:52:55.177Z,5.50
2022-10-07T04:55:21.702Z,4.72
2022-10-07T04:57:49.579Z,4.68
2022-10-07T05:00:16.145Z,4.65
2022-10-07T05:02:44.670Z,4.35
2022-10-07T05:05:11.209Z,5.05
2022-10-07T05:07:37.683Z,5.05
2022-10-07T05:10:04.738Z,5.57
2022-10-07T05:12:31.202Z,4.65
2022-10-07T05:14:58.179Z,4.97
2022-10-07T05:17:25.674Z,6.10
2022-10-07T05:19:52.114Z,5.68
2022-10-07T05:22:18.617Z,4.95
2022-10-07T05:24:45.026Z,5.40
2022-10-07T05:27:13.886Z,5.10
2022-10-07T05:29:40.400Z,5.30
2022-10-07T05:32:06.924Z,5.10
2022-10-07T05:34:33.392Z,5.90
2022-10-07T05:36:59.777Z,4.90
2022-10-07T05:39:26.261Z,4.95
2022-10-07T05:41:52.783Z,6.18
2022-10-07T05:44:22.215Z,5.20
2022-10-07T05:46:49.221Z,6.32
2022-10-07T05:49:15.742Z,6.40
2022-10-07T05:51:42.498Z,5.60
2022-10-07T05:54:08.894Z,6.07
2022-10-07T05:56:37.112Z,5.25
2022-10-07T05:59:04.497Z,6.18
2022-10-07T06:01:31.027Z,5.78
2022-10-07T06:03:57.885Z,6.00
2022-10-07T06:06:25.500Z,5.88
2022-10-07T06:08:53.324Z,5.50
2022-10-07T06:11:38.940Z,5.68
2022-10-07T06:14:06.244Z,5.28
2022-10-07T06:16:32.775Z,6.13
2022-10-07T06:18:59.978Z,5.85
2022-10-07T06:21:27.862Z,6.60
2022-10-07T06:23:56.488Z,8.32
2022-10-07T06:26:23.583Z,8.30
2022-10-07T06:28:50.223Z,7.85
2022-10-07T06:31:22.323Z,7.75
2022-10-07T06:33:50.108Z,6.55
2022-10-07T06:36:17.424Z,7.13
2022-10-07T06:38:48.665Z,6.65
2022-10-07T06:41:18.742Z,6.78
2022-10-07T06:43:45.668Z,6.68
2022-10-07T06:46:16.044Z,7.00
2022-10-07T06:48:44.632Z,6.97
2022-10-07T06:51:14.650Z,6.13
2022-10-07T06:53:41.902Z,6.72
2022-10-07T06:56:10.059Z,5.70
2022-10-07T06:58:36.848Z,6.55
2022-10-07T07:01:04.013Z,5.90
2022-10-07T07:03:30.561Z,6.03
2022-10-07T07:05:57.388Z,5.60
2022-10-07T07:08:31.688Z,6.55
2022-10-07T07:11:29.410Z,5.32
2022-10-07T07:13:56.584Z,5.45
2022-10-07T07:16:24.309Z,6.30
2022-10-07T07:18:53.183Z,5.78
2022-10-07T07:21:19.874Z,5.50
2022-10-07T07:23:46.518Z,6.22
2022-10-07T07:26:13.506Z,5.22
2022-10-07T07:28:40.148Z,5.55
2022-10-07T07:31:11.182Z,5.40
2022-10-07T07:33:38.317Z,5.80
2022-10-07T07:36:16.461Z,6.13
2022-10-07T07:38:43.835Z,5.53
2022-10-07T07:41:10.966Z,4.93
2022-10-07T07:43:37.501Z,4.45
2022-10-07T07:46:04.911Z,4.78
2022-10-07T07:48:31.516Z,5.10
2022-10-07T07:50:58.069Z,5.25
2022-10-07T07:53:24.512Z,4.82
2022-10-07T07:55:55.958Z,5.35
2022-10-07T07:58:24.396Z,4.38
2022-10-07T08:01:01.819Z,4.68
2022-10-07T08:03:28.421Z,3.97
2022-10-07T08:05:55.041Z,4.60
2022-10-07T08:08:22.264Z,4.45
2022-10-07T08:10:51.876Z,4.40
2022-10-07T08:13:18.695Z,4.03
2022-10-07T08:15:45.352Z,4.50
2022-10-07T08:18:11.874Z,3.97
2022-10-07T08:20:38.443Z,4.55
2022-10-07T08:23:06.118Z,4.38
2022-10-07T08:25:32.765Z,3.75
2022-10-07T08:27:59.871Z,4.53
2022-10-07T08:30:26.550Z,4.35
2022-10-07T08:32:54.197Z,4.70
2022-10-07T08:35:22.215Z,4.30
2022-10-07T08:37:48.947Z,4.75
2022-10-07T08:40:17.492Z,4.55
2022-10-07T08:42:44.174Z,3.28
2022-10-07T08:45:22.407Z,3.67
2022-10-07T08:47:51.403Z,3.90
2022-10-07T08:50:24.542Z,5.63
2022-10-07T08:52:56.050Z,3.35
2022-10-07T08:58:46.762Z,3.53
2022-10-07T09:01:39.633Z,3.33
2022-10-07T09:04:44.737Z,4.57
2022-10-07T09:07:20.054Z,3.55
2022-10-07T09:09:54.905Z,3.50
2022-10-07T09:12:29.245Z,3.63
2022-10-07T09:14:58.009Z,2.67
2022-10-07T09:17:36.407Z,3.08
2022-10-07T09:20:16.422Z,3.03
2022-10-07T09:22:50.199Z,2.78
2022-10-07T09:25:22.298Z,3.00
2022-10-07T09:27:51.379Z,2.72
2022-10-07T09:30:20.012Z,2.67
2022-10-07T09:32:49.345Z,3.35
2022-10-07T09:35:22.075Z,2.42
2022-10-07T09:38:03.228Z,2.63
2022-10-07T09:40:35.468Z,3.50
2022-10-07T09:43:13.796Z,2.53
2022-10-07T09:45:46.929Z,2.78
2022-10-07T09:48:23.916Z,2.38
2022-10-07T09:50:50.390Z,2.60
2022-10-07T09:53:29.104Z,3.00
2022-10-07T09:55:55.605Z,2.15
2022-10-07T09:58:30.486Z,2.83
2022-10-07T10:01:01.547Z,2.30
2022-10-07T10:03:37.242Z,2.38
2022-10-07T10:06:08.845Z,2.42
2022-10-07T10:08:42.590Z,3.55
2022-10-07T10:11:17.922Z,2.78
2022-10-07T10:13:44.450Z,2.50
2022-10-07T10:16:25.982Z,2.80
2022-10-07T10:19:02.379Z,2.25
2022-10-07T10:21:36.584Z,3.33
2022-10-07T10:24:06.400Z,3.10
2022-10-07T10:26:42.051Z,2.65
2022-10-07T10:29:40.976Z,2.80
2022-10-07T10:32:20.954Z,2.42
2022-10-07T10:35:02.472Z,2.50
2022-10-07T10:40:19.307Z,2.05
2022-10-07T10:43:04.104Z,2.22
2022-10-07T10:45:39.775Z,2.60
2022-10-07T10:48:31.551Z,3.17
2022-10-07T10:51:05.944Z,2.05
2022-10-07T10:53:40.393Z,2.53
2022-10-07T10:56:48.025Z,2.30
2022-10-07T10:59:33.897Z,2.70
2022-10-07T11:02:38.805Z,2.00
2022-10-07T11:05:36.822Z,2.60
2022-10-07T11:08:15.399Z,2.13
2022-10-07T11:10:50.753Z,2.20
2022-10-07T11:13:33.888Z,2.60
2022-10-07T11:16:20.677Z,2.58
2022-10-07T11:18:55.580Z,1.88
2022-10-07T11:21:39.869Z,2.25
2022-10-07T11:24:11.364Z,2.35
2022-10-07T11:29:32.579Z,2.65
2022-10-07T11:32:12.451Z,2.42
2022-10-07T11:34:56.673Z,2.33
2022-10-07T11:37:49.307Z,2.30
2022-10-07T11:40:16.545Z,2.65
2022-10-07T11:42:49.808Z,2.97
2022-10-07T11:45:22.272Z,2.10
2022-10-07T11:48:04.494Z,2.50
2022-10-07T11:50:36.817Z,2.67
2022-10-07T11:53:09.698Z,2.20
2022-10-07T11:55:45.462Z,2.70
2022-10-07T11:58:27.076Z,2.30
2022-10-07T12:01:25.391Z,3.22
2022-10-07T12:04:16.509Z,2.85
2022-10-07T12:07:20.393Z,2.70
2022-10-07T12:10:07.441Z,2.53
2022-10-07T12:12:43.898Z,2.47
2022-10-07T12:15:42.367Z,2.40
2022-10-07T12:18:10.441Z,2.47
2022-10-07T12:20:44.889Z,2.30
2022-10-07T12:23:17.283Z,2.78
2022-10-07T12:25:48.334Z,2.10
2022-10-07T12:28:41.770Z,2.63
2022-10-07T12:31:23.469Z,2.88
2022-10-07T12:36:29.268Z,1.90
2022-10-07T12:38:57.614Z,2.45
2022-10-07T12:41:25.386Z,2.78
2022-10-07T12:44:30.324Z,2.58
2022-10-07T12:47:02.422Z,2.05
2022-10-07T12:49:39.701Z,3.17
2022-10-07T12:52:15.053Z,2.13
2022-10-07T12:54:48.871Z,2.20
2022-10-07T12:57:21.534Z,2.20
2022-10-07T13:00:14.011Z,2.42
2022-10-07T13:02:43.722Z,2.30
2022-10-07T13:05:29.253Z,1.58
2022-10-07T13:08:15.247Z,2.20
2022-10-07T13:11:08.830Z,2.00
2022-10-07T13:13:52.906Z,2.22
2022-10-07T13:16:31.890Z,2.15
2022-10-07T13:19:14.181Z,1.75
2022-10-07T13:21:49.314Z,1.77
2022-10-07T13:24:22.337Z,2.08
2022-10-07T13:26:49.182Z,1.80
2022-10-07T13:29:28.355Z,1.95
2022-10-07T13:32:13.908Z,1.90
2022-10-07T13:34:41.523Z,2.03
2022-10-07T13:37:34.196Z,1.63
2022-10-07T13:40:20.794Z,1.95
2022-10-07T13:42:55.422Z,1.80
2022-10-07T13:45:22.606Z,1.75
2022-10-07T13:47:49.962Z,1.77
2022-10-07T13:50:22.419Z,2.47
2022-10-07T13:52:50.460Z,2.40
2022-10-07T13:55:30.483Z,3.05
2022-10-07T13:58:00.713Z,2.78
2022-10-07T14:00:32.976Z,2.08
2022-10-07T14:03:01.686Z,2.00
2022-10-07T14:05:31.601Z,2.20
2022-10-07T14:08:00.688Z,2.35
2022-10-07T14:10:29.601Z,2.40
2022-10-07T14:13:09.691Z,2.08
2022-10-07T14:15:37.002Z,2.50
2022-10-07T14:18:11.169Z,2.00
2022-10-07T14:20:45.947Z,3.50
2022-10-07T14:23:33.790Z,3.50
2022-10-07T14:26:11.644Z,3.05
2022-10-07T14:28:39.884Z,2.60
2022-10-07T14:31:25.147Z,2.97
2022-10-07T14:34:34.580Z,3.10
2022-10-07T14:37:17.394Z,2.20
2022-10-07T14:39:48.926Z,2.80
2022-10-07T14:42:18.369Z,2.45
2022-10-07T14:44:45.726Z,2.10
2022-10-07T14:47:15.371Z,2.10
2022-10-07T14:49:44.675Z,2.20
2022-10-07T14:52:18.125Z,1.70
2022-10-07T14:54:44.769Z,2.85
2022-10-07T14:57:11.187Z,2.25
2022-10-07T14:59:37.878Z,2.65
2022-10-07T15:02:04.365Z,2.72
2022-10-07T15:04:30.942Z,2.88
2022-10-07T15:06:58.038Z,2.20
2022-10-07T15:09:24.652Z,2.20
2022-10-07T15:11:51.323Z,2.47
2022-10-07T15:14:17.857Z,2.58
2022-10-07T15:16:44.652Z,2.38
2022-10-07T15:19:11.187Z,6.47
2022-10-07T15:21:37.637Z,2.67
2022-10-07T15:24:04.166Z,4.38
2022-10-07T15:26:31.128Z,2.10
2022-10-07T15:28:59.246Z,2.10
2022-10-07T15:31:28.078Z,2.10
2022-10-07T15:33:57.811Z,2.20
2022-10-07T15:36:29.021Z,2.67
2022-10-07T15:38:58.789Z,2.33
2022-10-07T15:41:40.038Z,2.10
2022-10-07T15:44:12.933Z,2.33
2022-10-07T15:46:39.400Z,2.42
2022-10-07T15:49:05.983Z,3.28
2022-10-07T15:51:32.895Z,3.03
2022-10-07T15:53:59.667Z,3.10
2022-10-07T15:56:26.109Z,3.35
2022-10-07T15:58:53.320Z,3.38
2022-10-07T16:01:20.769Z,3.08
2022-10-07T16:03:49.002Z,2.35
2022-10-07T16:06:21.177Z,2.00
2022-10-07T16:08:49.487Z,2.67
2022-10-07T16:11:16.169Z,2.08
2022-10-07T16:13:44.989Z,2.80
2022-10-07T16:16:14.765Z,3.13
2022-10-07T16:18:43.906Z,2.20
2022-10-07T16:21:15.644Z,3.10
2022-10-07T16:23:47.418Z,2.72
2022-10-07T16:26:19.552Z,3.30
2022-10-07T16:29:06.472Z,3.10
2022-10-07T16:31:34.925Z,2.88
2022-10-07T16:34:03.300Z,2.78
2022-10-07T16:36:30.318Z,2.55
2022-10-07T16:38:59.777Z,3.10
2022-10-07T16:41:26.272Z,3.40
2022-10-07T16:43:52.707Z,4.72
2022-10-07T16:46:20.792Z,4.80
2022-10-07T16:48:49.056Z,4.45
2022-10-07T16:51:18.578Z,3.70
2022-10-07T16:53:46.998Z,3.47
2022-10-07T16:56:13.586Z,4.07
2022-10-07T16:58:40.381Z,4.43
2022-10-07T17:01:12.772Z,4.25
2022-10-07T17:03:41.197Z,3.85
2022-10-07T17:06:14.926Z,3.55
2022-10-07T17:08:47.487Z,4.03
2022-10-07T17:11:29.019Z,4.53
2022-10-07T17:13:58.182Z,2.97
2022-10-07T17:16:26.099Z,5.30
2022-10-07T17:18:53.387Z,5.20
2022-10-07T17:21:20.405Z,4.80
2022-10-07T17:23:47.746Z,4.78
2022-10-07T17:26:15.435Z,3.80
2022-10-07T17:28:42.742Z,4.60
2022-10-07T17:31:12.052Z,4.68
2022-10-07T17:33:45.270Z,4.07
2022-10-07T17:36:12.671Z,4.50
2022-10-07T17:38:43.802Z,4.20
2022-10-07T17:41:16.654Z,3.67
2022-10-07T17:43:43.428Z,3.67
2022-10-07T17:46:12.783Z,4.18
2022-10-07T17:48:54.522Z,3.50
2022-10-07T17:51:24.130Z,4.05
2022-10-07T17:53:51.108Z,3.95
2022-10-07T17:56:17.605Z,4.35
2022-10-07T17:58:45.762Z,4.22
2022-10-07T18:01:19.446Z,3.97
2022-10-07T18:03:51.204Z,5.05
2022-10-07T18:08:44.743Z,3.58
2022-10-07T18:11:11.280Z,5.05
2022-10-07T18:13:56.242Z,4.50
2022-10-07T18:16:23.178Z,4.78
2022-10-07T18:18:57.138Z,4.05
2022-10-07T18:21:24.484Z,4.55
2022-10-07T18:23:52.553Z,4.28
2022-10-07T18:26:19.213Z,3.92
2022-10-07T18:28:49.449Z,4.25
2022-10-07T18:31:17.549Z,4.85
2022-10-07T18:33:45.991Z,4.60
2022-10-07T18:36:15.803Z,3.90
2022-10-07T18:38:44.364Z,4.43
2022-10-07T18:41:16.098Z,4.13
2022-10-07T18:46:12.734Z,4.40
2022-10-07T18:48:50.623Z,4.22
2022-10-07T18:51:17.508Z,4.93
2022-10-07T18:53:47.137Z,4.32
2022-10-07T18:56:14.958Z,4.00
2022-10-07T18:58:44.492Z,4.10
2022-10-07T19:01:17.125Z,3.72
2022-10-07T19:03:44.530Z,4.72
2022-10-07T19:06:17.148Z,4.35
2022-10-07T19:08:43.594Z,4.45
2022-10-07T19:11:16.852Z,4.40
2022-10-07T19:13:48.144Z,4.35
2022-10-07T19:16:29.184Z,4.95
2022-10-07T19:18:59.215Z,4.45
2022-10-07T19:21:26.043Z,4.63
2022-10-07T19:24:01.630Z,4.90
2022-10-07T19:26:42.761Z,4.97
2022-10-07T19:29:10.721Z,4.97
2022-10-07T19:31:43.773Z,5.18
2022-10-07T19:34:13.352Z,4.85
2022-10-07T19:36:42.326Z,4.72
2022-10-07T19:39:10.406Z,4.47
2022-10-07T19:41:37.422Z,4.95
2022-10-07T19:44:05.022Z,5.50
2022-10-07T19:46:33.518Z,5.80
2022-10-07T19:49:02.020Z,4.30
2022-10-07T19:51:30.524Z,5.30
2022-10-07T19:53:58.076Z,4.40
2022-10-07T19:56:28.145Z,4.03
2022-10-07T19:58:56.969Z,4.80
2022-10-07T20:01:26.283Z,6.18
2022-10-07T20:03:57.966Z,7.65
2022-10-07T20:08:52.352Z,5.90
2022-10-07T20:11:19.080Z,4.30
2022-10-07T20:13:45.718Z,4.05
2022-10-07T20:16:18.973Z,4.47
2022-10-07T20:18:48.103Z,4.07
2022-10-07T20:21:24.368Z,4.43
2022-10-07T20:23:53.798Z,4.97
2022-10-07T20:26:23.687Z,4.93
2022-10-07T20:28:52.832Z,4.00
2022-10-07T20:31:21.729Z,4.85
2022-10-07T20:33:50.946Z,4.00
2022-10-07T20:36:23.289Z,3.72
2022-10-07T20:39:23.506Z,4.72
2022-10-07T20:42:09.940Z,4.78
2022-10-07T20:44:36.680Z,4.57
2022-10-07T20:47:06.227Z,4.80
2022-10-07T20:49:33.634Z,3.60
2022-10-07T20:52:02.208Z,4.40
2022-10-07T20:54:30.164Z,4.50
2022-10-07T20:56:57.983Z,3.97
2022-10-07T20:59:28.835Z,4.60
2022-10-07T21:01:56.174Z,4.07
2022-10-07T21:04:25.129Z,3.88
2022-10-07T21:06:52.234Z,4.53
2022-10-07T21:09:20.018Z,4.65
2022-10-07T21:11:47.261Z,4.22
2022-10-07T21:14:14.479Z,4.30
2022-10-07T21:16:41.374Z,4.38
2022-10-07T21:19:08.073Z,4.30
2022-10-07T21:21:34.886Z,4.78
2022-10-07T21:24:01.376Z,3.75
2022-10-07T21:26:27.826Z,5.10
2022-10-07T21:28:54.354Z,4.63
2022-10-07T21:31:22.030Z,5.65
2022-10-07T21:33:50.460Z,5.28
2022-10-07T21:36:21.610Z,4.70
2022-10-07T21:38:54.289Z,5.50
2022-10-07T21:41:24.721Z,4.70
2022-10-07T21:43:53.495Z,4.70
2022-10-07T21:46:20.917Z,4.40
2022-10-07T21:48:47.742Z,5.20
2022-10-07T21:51:14.816Z,5.43
2022-10-07T21:53:41.432Z,5.13
2022-10-07T21:56:11.477Z,4.93
2022-10-07T21:58:38.102Z,5.90
